sensor_id;sensor_type;location;lat;lon;timestamp;P1;durP1;ratioP1;P2;durP2;ratioP2
8100;SDS011;4093;53.470;9.832;2022-12-29T00:01:48;10.57;;;7.10;;
8100;SDS011;4093;53.470;9.832;2022-12-29T00:04:16;7.73;;;7.03;;
8100;SDS011;4093;53.470;9.832;2022-12-29T00:06:44;7.53;;;6.83;;
8100;SDS011;4093;53.470;9.832;2022-12-29T00:09:14;7.90;;;7.10;;
8100;SDS011;4093;53.470;9.832;2022-12-29T00:11:43;8.30;;;7.33;;
8100;SDS011;4093;53.470;9.832;2022-12-29T00:14:11;8.70;;;7.70;;
8100;SDS011;4093;53.470;9.832;2022-12-29T00:16:57;8.57;;;7.63;;
8100;SDS011;4093;53.470;9.832;2022-12-29T00:19:25;10.63;;;8.00;;
8100;SDS011;4093;53.470;9.832;2022-12-29T00:22:10;8.13;;;7.33;;
8100;SDS011;4093;53.470;9.832;2022-12-29T00:24:57;8.67;;;7.27;;
8100;SDS011;4093;53.470;9.832;2022-12-29T00:27:43;7.93;;;6.97;;
8100;SDS011;4093;53.470;9.832;2022-12-29T00:30:32;8.97;;;8.17;;
8100;SDS011;4093;53.470;9.832;2022-12-29T00:33:19;10.10;;;7.67;;
8100;SDS011;4093;53.470;9.832;2022-12-29T00:36:06;7.83;;;7.03;;
8100;SDS011;4093;53.470;9.832;2022-12-29T00:38:40;9.27;;;7.27;;
8100;SDS011;4093;53.470;9.832;2022-12-29T00:41:31;9.63;;;7.73;;
8100;SDS011;4093;53.470;9.832;2022-12-29T00:44:16;8.50;;;7.63;;
8100;SDS011;4093;53.470;9.832;2022-12-29T00:46:44;8.37;;;7.57;;
8100;SDS011;4093;53.470;9.832;2022-12-29T00:49:13;8.23;;;7.30;;
8100;SDS011;4093;53.470;9.832;2022-12-29T00:51:59;8.10;;;7.33;;
8100;SDS011;4093;53.470;9.832;2022-12-29T00:54:30;7.87;;;6.90;;
8100;SDS011;4093;53.470;9.832;2022-12-29T00:57:00;7.30;;;6.60;;
8100;SDS011;4093;53.470;9.832;2022-12-29T00:59:29;7.07;;;6.43;;
8100;SDS011;4093;53.470;9.832;2022-12-29T01:01:57;7.80;;;7.00;;
8100;SDS011;4093;53.470;9.832;2022-12-29T01:04:25;9.37;;;7.13;;
8100;SDS011;4093;53.470;9.832;2022-12-29T01:06:53;7.53;;;6.83;;
8100;SDS011;4093;53.470;9.832;2022-12-29T01:09:21;7.83;;;6.90;;
8100;SDS011;4093;53.470;9.832;2022-12-29T01:12:08;7.93;;;7.10;;
8100;SDS011;4093;53.470;9.832;2022-12-29T01:14:37;7.73;;;6.93;;
8100;SDS011;4093;53.470;9.832;2022-12-29T01:17:05;8.07;;;7.27;;
8100;SDS011;4093;53.470;9.832;2022-12-29T01:19:33;7.67;;;6.93;;
8100;SDS011;4093;53.470;9.832;2022-12-29T01:22:01;7.70;;;6.97;;
8100;SDS011;4093;53.470;9.832;2022-12-29T01:24:29;7.53;;;6.83;;
8100;SDS011;4093;53.470;9.832;2022-12-29T01:26:57;7.57;;;6.87;;
8100;SDS011;4093;53.470;9.832;2022-12-29T01:29:26;7.70;;;6.90;;
8100;SDS011;4093;53.470;9.832;2022-12-29T01:31:54;7.03;;;6.30;;
8100;SDS011;4093;53.470;9.832;2022-12-29T01:34:21;7.40;;;6.70;;
8100;SDS011;4093;53.470;9.832;2022-12-29T01:36:49;7.40;;;6.70;;
8100;SDS011;4093;53.470;9.832;2022-12-29T01:39:17;7.87;;;7.07;;
8100;SDS011;4093;53.470;9.832;2022-12-29T01:41:45;8.37;;;7.57;;
8100;SDS011;4093;53.470;9.832;2022-12-29T01:50:08;8.60;;;7.77;;
8100;SDS011;4093;53.470;9.832;2022-12-29T01:52:40;12.90;;;9.17;;
8100;SDS011;4093;53.470;9.832;2022-12-29T01:55:14;9.27;;;8.37;;
8100;SDS011;4093;53.470;9.832;2022-12-29T01:57:44;9.60;;;8.63;;
8100;SDS011;4093;53.470;9.832;2022-12-29T02:00:17;10.90;;;8.70;;
8100;SDS011;4093;53.470;9.832;2022-12-29T02:02:46;10.90;;;8.60;;
8100;SDS011;4093;53.470;9.832;2022-12-29T02:05:19;9.00;;;8.10;;
8100;SDS011;4093;53.470;9.832;2022-12-29T02:07:52;9.20;;;8.23;;
8100;SDS011;4093;53.470;9.832;2022-12-29T02:10:21;8.53;;;7.67;;
8100;SDS011;4093;53.470;9.832;2022-12-29T02:12:53;10.70;;;8.97;;
8100;SDS011;4093;53.470;9.832;2022-12-29T02:15:24;8.57;;;7.23;;
8100;SDS011;4093;53.470;9.832;2022-12-29T02:18:04;9.67;;;8.03;;
8100;SDS011;4093;53.470;9.832;2022-12-29T02:27:11;8.27;;;7.47;;
8100;SDS011;4093;53.470;9.832;2022-12-29T02:30:06;7.53;;;6.80;;
8100;SDS011;4093;53.470;9.832;2022-12-29T02:32:44;9.53;;;6.90;;
8100;SDS011;4093;53.470;9.832;2022-12-29T02:35:20;7.80;;;7.10;;
8100;SDS011;4093;53.470;9.832;2022-12-29T02:37:59;7.40;;;6.60;;
8100;SDS011;4093;53.470;9.832;2022-12-29T02:40:37;7.27;;;6.57;;
8100;SDS011;4093;53.470;9.832;2022-12-29T02:43:13;7.23;;;6.53;;
8100;SDS011;4093;53.470;9.832;2022-12-29T02:45:51;7.27;;;6.57;;
8100;SDS011;4093;53.470;9.832;2022-12-29T02:48:25;7.17;;;6.47;;
8100;SDS011;4093;53.470;9.832;2022-12-29T02:50:59;7.07;;;6.40;;
8100;SDS011;4093;53.470;9.832;2022-12-29T02:53:29;6.77;;;6.13;;
8100;SDS011;4093;53.470;9.832;2022-12-29T02:56:16;7.47;;;5.70;;
8100;SDS011;4093;53.470;9.832;2022-12-29T02:58:44;8.50;;;6.50;;
8100;SDS011;4093;53.470;9.832;2022-12-29T03:01:16;6.87;;;6.27;;
8100;SDS011;4093;53.470;9.832;2022-12-29T03:04:01;7.17;;;5.43;;
8100;SDS011;4093;53.470;9.832;2022-12-29T03:06:40;6.20;;;5.60;;
8100;SDS011;4093;53.470;9.832;2022-12-29T03:09:20;6.13;;;5.63;;
8100;SDS011;4093;53.470;9.832;2022-12-29T03:11:58;5.70;;;5.20;;
8100;SDS011;4093;53.470;9.832;2022-12-29T03:14:37;5.97;;;4.93;;
8100;SDS011;4093;53.470;9.832;2022-12-29T03:17:30;6.37;;;5.17;;
8100;SDS011;4093;53.470;9.832;2022-12-29T03:20:08;5.67;;;5.17;;
8100;SDS011;4093;53.470;9.832;2022-12-29T03:22:39;5.63;;;5.23;;
8100;SDS011;4093;53.470;9.832;2022-12-29T03:25:12;5.67;;;4.77;;
8100;SDS011;4093;53.470;9.832;2022-12-29T03:27:45;5.63;;;4.93;;
8100;SDS011;4093;53.470;9.832;2022-12-29T03:30:17;5.50;;;5.10;;
8100;SDS011;4093;53.470;9.832;2022-12-29T03:32:46;5.10;;;4.43;;
8100;SDS011;4093;53.470;9.832;2022-12-29T03:35:19;4.77;;;4.37;;
8100;SDS011;4093;53.470;9.832;2022-12-29T03:37:51;5.00;;;4.60;;
8100;SDS011;4093;53.470;9.832;2022-12-29T03:40:24;5.00;;;4.60;;
8100;SDS011;4093;53.470;9.832;2022-12-29T03:42:54;6.80;;;4.83;;
8100;SDS011;4093;53.470;9.832;2022-12-29T03:45:23;5.67;;;4.50;;
8100;SDS011;4093;53.470;9.832;2022-12-29T03:47:51;5.20;;;4.70;;
8100;SDS011;4093;53.470;9.832;2022-12-29T03:50:21;4.70;;;4.30;;
8100;SDS011;4093;53.470;9.832;2022-12-29T03:52:49;4.80;;;4.20;;
8100;SDS011;4093;53.470;9.832;2022-12-29T03:55:17;6.37;;;4.53;;
8100;SDS011;4093;53.470;9.832;2022-12-29T03:57:44;4.93;;;4.13;;
8100;SDS011;4093;53.470;9.832;2022-12-29T04:00:12;5.00;;;4.50;;
8100;SDS011;4093;53.470;9.832;2022-12-29T04:02:43;4.47;;;4.07;;
8100;SDS011;4093;53.470;9.832;2022-12-29T04:05:11;4.13;;;3.70;;
8100;SDS011;4093;53.470;9.832;2022-12-29T04:07:40;3.80;;;3.43;;
8100;SDS011;4093;53.470;9.832;2022-12-29T04:10:08;3.70;;;3.40;;
8100;SDS011;4093;53.470;9.832;2022-12-29T04:12:36;3.97;;;3.67;;
8100;SDS011;4093;53.470;9.832;2022-12-29T04:15:04;3.70;;;3.40;;
8100;SDS011;4093;53.470;9.832;2022-12-29T04:17:33;3.20;;;3.00;;
8100;SDS011;4093;53.470;9.832;2022-12-29T04:20:00;3.53;;;3.10;;
8100;SDS011;4093;53.470;9.832;2022-12-29T04:22:44;3.40;;;3.10;;
8100;SDS011;4093;53.470;9.832;2022-12-29T04:25:12;3.33;;;3.10;;
8100;SDS011;4093;53.470;9.832;2022-12-29T04:27:40;2.97;;;2.77;;
8100;SDS011;4093;53.470;9.832;2022-12-29T04:30:08;3.40;;;3.20;;
8100;SDS011;4093;53.470;9.832;2022-12-29T04:32:37;3.40;;;3.10;;
8100;SDS011;4093;53.470;9.832;2022-12-29T04:35:05;3.20;;;2.90;;
8100;SDS011;4093;53.470;9.832;2022-12-29T04:37:33;3.37;;;3.07;;
8100;SDS011;4093;53.470;9.832;2022-12-29T04:40:02;3.37;;;3.00;;
8100;SDS011;4093;53.470;9.832;2022-12-29T04:42:30;3.93;;;3.40;;
8100;SDS011;4093;53.470;9.832;2022-12-29T04:44:58;3.23;;;2.93;;
8100;SDS011;4093;53.470;9.832;2022-12-29T04:47:26;2.90;;;2.70;;
8100;SDS011;4093;53.470;9.832;2022-12-29T04:49:53;4.57;;;3.27;;
8100;SDS011;4093;53.470;9.832;2022-12-29T04:52:21;3.03;;;2.83;;
8100;SDS011;4093;53.470;9.832;2022-12-29T04:54:49;2.80;;;2.60;;
8100;SDS011;4093;53.470;9.832;2022-12-29T04:57:18;3.20;;;2.90;;
8100;SDS011;4093;53.470;9.832;2022-12-29T04:59:46;2.90;;;2.70;;
8100;SDS011;4093;53.470;9.832;2022-12-29T05:02:14;3.20;;;2.90;;
8100;SDS011;4093;53.470;9.832;2022-12-29T05:04:43;3.17;;;2.87;;
8100;SDS011;4093;53.470;9.832;2022-12-29T05:07:12;3.60;;;3.30;;
8100;SDS011;4093;53.470;9.832;2022-12-29T05:09:40;4.13;;;3.20;;
8100;SDS011;4093;53.470;9.832;2022-12-29T05:12:07;3.40;;;3.20;;
8100;SDS011;4093;53.470;9.832;2022-12-29T05:14:37;3.60;;;3.30;;
8100;SDS011;4093;53.470;9.832;2022-12-29T05:17:04;3.90;;;3.60;;
8100;SDS011;4093;53.470;9.832;2022-12-29T05:19:32;3.70;;;3.37;;
8100;SDS011;4093;53.470;9.832;2022-12-29T05:22:00;4.03;;;3.60;;
8100;SDS011;4093;53.470;9.832;2022-12-29T05:24:28;4.03;;;3.63;;
8100;SDS011;4093;53.470;9.832;2022-12-29T05:26:56;3.60;;;3.30;;
8100;SDS011;4093;53.470;9.832;2022-12-29T05:29:24;3.60;;;3.30;;
8100;SDS011;4093;53.470;9.832;2022-12-29T05:31:53;3.47;;;3.20;;
8100;SDS011;4093;53.470;9.832;2022-12-29T05:34:21;3.17;;;2.93;;
8100;SDS011;4093;53.470;9.832;2022-12-29T05:36:48;3.40;;;3.10;;
8100;SDS011;4093;53.470;9.832;2022-12-29T05:39:16;3.43;;;3.00;;
8100;SDS011;4093;53.470;9.832;2022-12-29T05:41:44;3.20;;;3.00;;
8100;SDS011;4093;53.470;9.832;2022-12-29T05:44:12;3.60;;;3.30;;
8100;SDS011;4093;53.470;9.832;2022-12-29T05:46:40;3.43;;;3.13;;
8100;SDS011;4093;53.470;9.832;2022-12-29T05:49:09;4.37;;;3.47;;
8100;SDS011;4093;53.470;9.832;2022-12-29T05:51:37;3.60;;;3.00;;
8100;SDS011;4093;53.470;9.832;2022-12-29T05:54:05;3.47;;;3.17;;
8100;SDS011;4093;53.470;9.832;2022-12-29T05:56:33;3.10;;;2.80;;
8100;SDS011;4093;53.470;9.832;2022-12-29T05:59:00;3.33;;;3.00;;
8100;SDS011;4093;53.470;9.832;2022-12-29T06:01:28;3.13;;;2.93;;
8100;SDS011;4093;53.470;9.832;2022-12-29T06:03:56;4.00;;;3.60;;
8100;SDS011;4093;53.470;9.832;2022-12-29T06:06:25;3.40;;;3.10;;
8100;SDS011;4093;53.470;9.832;2022-12-29T06:08:54;4.43;;;3.30;;
8100;SDS011;4093;53.470;9.832;2022-12-29T06:11:21;3.20;;;2.90;;
8100;SDS011;4093;53.470;9.832;2022-12-29T06:13:49;3.70;;;3.40;;
8100;SDS011;4093;53.470;9.832;2022-12-29T06:16:17;3.50;;;3.20;;
8100;SDS011;4093;53.470;9.832;2022-12-29T06:18:45;3.57;;;3.27;;
8100;SDS011;4093;53.470;9.832;2022-12-29T06:21:12;3.40;;;3.10;;
8100;SDS011;4093;53.470;9.832;2022-12-29T06:23:42;3.30;;;3.00;;
8100;SDS011;4093;53.470;9.832;2022-12-29T06:26:09;3.50;;;3.20;;
8100;SDS011;4093;53.470;9.832;2022-12-29T06:28:37;3.60;;;3.30;;
8100;SDS011;4093;53.470;9.832;2022-12-29T06:31:05;3.40;;;3.10;;
8100;SDS011;4093;53.470;9.832;2022-12-29T06:33:36;3.00;;;2.80;;
8100;SDS011;4093;53.470;9.832;2022-12-29T06:36:04;2.60;;;2.40;;
8100;SDS011;4093;53.470;9.832;2022-12-29T06:38:32;2.57;;;2.40;;
8100;SDS011;4093;53.470;9.832;2022-12-29T06:41:02;2.70;;;2.50;;
8100;SDS011;4093;53.470;9.832;2022-12-29T06:43:30;2.30;;;2.10;;
8100;SDS011;4093;53.470;9.832;2022-12-29T06:46:00;2.73;;;2.53;;
8100;SDS011;4093;53.470;9.832;2022-12-29T06:48:27;2.50;;;2.20;;
8100;SDS011;4093;53.470;9.832;2022-12-29T06:50:55;2.60;;;2.30;;
8100;SDS011;4093;53.470;9.832;2022-12-29T06:53:23;2.60;;;2.40;;
8100;SDS011;4093;53.470;9.832;2022-12-29T06:55:50;3.00;;;2.70;;
8100;SDS011;4093;53.470;9.832;2022-12-29T06:58:20;3.10;;;2.90;;
8100;SDS011;4093;53.470;9.832;2022-12-29T07:00:47;3.60;;;2.97;;
8100;SDS011;4093;53.470;9.832;2022-12-29T07:03:15;3.30;;;3.00;;
8100;SDS011;4093;53.470;9.832;2022-12-29T07:05:43;3.70;;;3.17;;
8100;SDS011;4093;53.470;9.832;2022-12-29T07:08:11;3.40;;;3.10;;
8100;SDS011;4093;53.470;9.832;2022-12-29T07:10:39;5.37;;;3.77;;
8100;SDS011;4093;53.470;9.832;2022-12-29T07:13:07;5.57;;;4.13;;
8100;SDS011;4093;53.470;9.832;2022-12-29T07:15:37;5.10;;;4.60;;
8100;SDS011;4093;53.470;9.832;2022-12-29T07:18:04;4.60;;;4.30;;
8100;SDS011;4093;53.470;9.832;2022-12-29T07:20:32;6.03;;;5.27;;
8100;SDS011;4093;53.470;9.832;2022-12-29T07:23:00;6.63;;;5.97;;
8100;SDS011;4093;53.470;9.832;2022-12-29T07:25:29;6.87;;;6.17;;
8100;SDS011;4093;53.470;9.832;2022-12-29T07:27:57;4.40;;;4.00;;
8100;SDS011;4093;53.470;9.832;2022-12-29T07:30:24;5.37;;;4.37;;
8100;SDS011;4093;53.470;9.832;2022-12-29T07:32:53;4.17;;;3.77;;
8100;SDS011;4093;53.470;9.832;2022-12-29T07:35:21;4.00;;;3.20;;
8100;SDS011;4093;53.470;9.832;2022-12-29T07:37:49;5.83;;;4.17;;
8100;SDS011;4093;53.470;9.832;2022-12-29T07:40:17;3.50;;;2.97;;
8100;SDS011;4093;53.470;9.832;2022-12-29T07:42:44;5.20;;;4.67;;
8100;SDS011;4093;53.470;9.832;2022-12-29T07:45:12;4.03;;;3.73;;
8100;SDS011;4093;53.470;9.832;2022-12-29T07:47:40;4.40;;;4.00;;
8100;SDS011;4093;53.470;9.832;2022-12-29T07:50:09;3.23;;;2.57;;
8100;SDS011;4093;53.470;9.832;2022-12-29T07:52:37;4.83;;;4.07;;
8100;SDS011;4093;53.470;9.832;2022-12-29T07:55:05;4.57;;;4.17;;
8100;SDS011;4093;53.470;9.832;2022-12-29T07:57:34;4.60;;;4.00;;
8100;SDS011;4093;53.470;9.832;2022-12-29T08:00:02;7.47;;;6.33;;
8100;SDS011;4093;53.470;9.832;2022-12-29T08:02:30;5.20;;;4.70;;
8100;SDS011;4093;53.470;9.832;2022-12-29T08:04:59;4.77;;;4.27;;
8100;SDS011;4093;53.470;9.832;2022-12-29T08:07:28;8.60;;;6.60;;
8100;SDS011;4093;53.470;9.832;2022-12-29T08:09:56;6.60;;;5.90;;
8100;SDS011;4093;53.470;9.832;2022-12-29T08:12:24;7.10;;;5.83;;
8100;SDS011;4093;53.470;9.832;2022-12-29T08:14:52;5.80;;;5.20;;
8100;SDS011;4093;53.470;9.832;2022-12-29T08:17:19;5.40;;;4.90;;
8100;SDS011;4093;53.470;9.832;2022-12-29T08:19:47;5.93;;;4.40;;
8100;SDS011;4093;53.470;9.832;2022-12-29T08:22:15;5.50;;;4.37;;
8100;SDS011;4093;53.470;9.832;2022-12-29T08:24:44;9.00;;;6.80;;
8100;SDS011;4093;53.470;9.832;2022-12-29T08:27:12;6.13;;;5.37;;
8100;SDS011;4093;53.470;9.832;2022-12-29T08:29:46;10.77;;;7.07;;
8100;SDS011;4093;53.470;9.832;2022-12-29T08:32:14;11.13;;;6.30;;
8100;SDS011;4093;53.470;9.832;2022-12-29T08:34:42;6.10;;;5.00;;
8100;SDS011;4093;53.470;9.832;2022-12-29T08:37:09;9.23;;;6.13;;
8100;SDS011;4093;53.470;9.832;2022-12-29T08:39:37;9.67;;;5.87;;
8100;SDS011;4093;53.470;9.832;2022-12-29T08:42:07;6.90;;;5.57;;
8100;SDS011;4093;53.470;9.832;2022-12-29T08:44:35;5.83;;;3.97;;
8100;SDS011;4093;53.470;9.832;2022-12-29T08:47:02;5.10;;;3.57;;
8100;SDS011;4093;53.470;9.832;2022-12-29T08:49:31;10.53;;;6.63;;
8100;SDS011;4093;53.470;9.832;2022-12-29T08:51:59;12.97;;;8.60;;
8100;SDS011;4093;53.470;9.832;2022-12-29T08:54:27;5.83;;;3.93;;
8100;SDS011;4093;53.470;9.832;2022-12-29T08:56:54;3.77;;;3.20;;
8100;SDS011;4093;53.470;9.832;2022-12-29T08:59:24;11.43;;;7.23;;
8100;SDS011;4093;53.470;9.832;2022-12-29T09:01:51;14.13;;;7.23;;
8100;SDS011;4093;53.470;9.832;2022-12-29T09:04:19;10.33;;;6.50;;
8100;SDS011;4093;53.470;9.832;2022-12-29T09:06:47;12.07;;;7.23;;
8100;SDS011;4093;53.470;9.832;2022-12-29T09:09:15;5.17;;;2.97;;
8100;SDS011;4093;53.470;9.832;2022-12-29T09:11:44;6.80;;;4.17;;
8100;SDS011;4093;53.470;9.832;2022-12-29T09:14:12;9.27;;;6.20;;
8100;SDS011;4093;53.470;9.832;2022-12-29T09:16:41;7.47;;;4.00;;
8100;SDS011;4093;53.470;9.832;2022-12-29T09:19:27;4.67;;;4.00;;
8100;SDS011;4093;53.470;9.832;2022-12-29T09:21:55;4.07;;;2.33;;
8100;SDS011;4093;53.470;9.832;2022-12-29T09:24:22;6.70;;;2.23;;
8100;SDS011;4093;53.470;9.832;2022-12-29T09:26:50;8.40;;;2.70;;
8100;SDS011;4093;53.470;9.832;2022-12-29T09:29:18;3.53;;;2.60;;
8100;SDS011;4093;53.470;9.832;2022-12-29T09:31:47;5.00;;;2.40;;
8100;SDS011;4093;53.470;9.832;2022-12-29T09:34:15;4.97;;;2.10;;
8100;SDS011;4093;53.470;9.832;2022-12-29T09:36:42;5.07;;;2.20;;
8100;SDS011;4093;53.470;9.832;2022-12-29T09:39:10;4.13;;;1.90;;
8100;SDS011;4093;53.470;9.832;2022-12-29T09:41:39;4.23;;;2.47;;
8100;SDS011;4093;53.470;9.832;2022-12-29T09:44:13;4.33;;;2.80;;
8100;SDS011;4093;53.470;9.832;2022-12-29T09:46:48;6.47;;;2.13;;
8100;SDS011;4093;53.470;9.832;2022-12-29T09:49:22;5.00;;;1.97;;
8100;SDS011;4093;53.470;9.832;2022-12-29T09:51:53;5.20;;;2.20;;
8100;SDS011;4093;53.470;9.832;2022-12-29T09:54:31;2.00;;;1.87;;
8100;SDS011;4093;53.470;9.832;2022-12-29T09:57:10;3.00;;;2.30;;
8100;SDS011;4093;53.470;9.832;2022-12-29T09:59:43;5.87;;;1.97;;
8100;SDS011;4093;53.470;9.832;2022-12-29T10:02:20;4.10;;;1.63;;
8100;SDS011;4093;53.470;9.832;2022-12-29T10:04:56;4.80;;;2.20;;
8100;SDS011;4093;53.470;9.832;2022-12-29T10:07:26;3.83;;;2.70;;
8100;SDS011;4093;53.470;9.832;2022-12-29T10:10:03;3.77;;;2.10;;
8100;SDS011;4093;53.470;9.832;2022-12-29T10:12:47;4.40;;;1.70;;
8100;SDS011;4093;53.470;9.832;2022-12-29T10:15:28;4.77;;;2.13;;
8100;SDS011;4093;53.470;9.832;2022-12-29T10:18:17;5.53;;;2.17;;
8100;SDS011;4093;53.470;9.832;2022-12-29T10:20:55;5.80;;;2.00;;
8100;SDS011;4093;53.470;9.832;2022-12-29T10:23:27;7.57;;;2.30;;
8100;SDS011;4093;53.470;9.832;2022-12-29T10:25:57;3.93;;;1.87;;
8100;SDS011;4093;53.470;9.832;2022-12-29T10:28:31;2.67;;;2.07;;
8100;SDS011;4093;53.470;9.832;2022-12-29T10:31:03;3.77;;;1.90;;
8100;SDS011;4093;53.470;9.832;2022-12-29T10:33:38;5.33;;;2.00;;
8100;SDS011;4093;53.470;9.832;2022-12-29T10:36:11;6.13;;;2.00;;
8100;SDS011;4093;53.470;9.832;2022-12-29T10:38:44;6.07;;;1.93;;
8100;SDS011;4093;53.470;9.832;2022-12-29T10:41:20;6.70;;;1.90;;
8100;SDS011;4093;53.470;9.832;2022-12-29T10:43:53;4.87;;;2.50;;
8100;SDS011;4093;53.470;9.832;2022-12-29T10:46:24;6.13;;;2.30;;
8100;SDS011;4093;53.470;9.832;2022-12-29T10:48:57;5.57;;;2.37;;
8100;SDS011;4093;53.470;9.832;2022-12-29T10:51:25;8.90;;;2.70;;
8100;SDS011;4093;53.470;9.832;2022-12-29T10:53:55;4.63;;;2.27;;
8100;SDS011;4093;53.470;9.832;2022-12-29T10:56:29;7.10;;;2.77;;
8100;SDS011;4093;53.470;9.832;2022-12-29T10:59:01;7.20;;;2.20;;
8100;SDS011;4093;53.470;9.832;2022-12-29T11:01:37;6.23;;;2.00;;
8100;SDS011;4093;53.470;9.832;2022-12-29T11:04:20;5.80;;;2.70;;
8100;SDS011;4093;53.470;9.832;2022-12-29T11:07:00;5.23;;;2.10;;
8100;SDS011;4093;53.470;9.832;2022-12-29T11:09:29;5.70;;;1.90;;
8100;SDS011;4093;53.470;9.832;2022-12-29T11:12:18;5.50;;;2.23;;
8100;SDS011;4093;53.470;9.832;2022-12-29T11:15:01;5.70;;;1.90;;
8100;SDS011;4093;53.470;9.832;2022-12-29T11:17:43;5.47;;;2.00;;
8100;SDS011;4093;53.470;9.832;2022-12-29T11:20:24;5.60;;;2.00;;
8100;SDS011;4093;53.470;9.832;2022-12-29T11:22:56;4.77;;;2.00;;
8100;SDS011;4093;53.470;9.832;2022-12-29T11:25:26;4.73;;;2.00;;
8100;SDS011;4093;53.470;9.832;2022-12-29T11:27:58;4.27;;;2.07;;
8100;SDS011;4093;53.470;9.832;2022-12-29T11:30:31;3.27;;;1.70;;
8100;SDS011;4093;53.470;9.832;2022-12-29T11:33:03;8.60;;;2.23;;
8100;SDS011;4093;53.470;9.832;2022-12-29T11:35:38;3.97;;;1.70;;
8100;SDS011;4093;53.470;9.832;2022-12-29T11:38:16;4.90;;;1.87;;
8100;SDS011;4093;53.470;9.832;2022-12-29T11:40:48;6.17;;;2.63;;
8100;SDS011;4093;53.470;9.832;2022-12-29T11:43:19;3.03;;;2.20;;
8100;SDS011;4093;53.470;9.832;2022-12-29T11:45:51;5.33;;;2.40;;
8100;SDS011;4093;53.470;9.832;2022-12-29T11:48:22;4.73;;;1.93;;
8100;SDS011;4093;53.470;9.832;2022-12-29T11:50:56;4.10;;;1.70;;
8100;SDS011;4093;53.470;9.832;2022-12-29T11:53:26;3.93;;;2.20;;
8100;SDS011;4093;53.470;9.832;2022-12-29T11:55:59;2.27;;;1.60;;
8100;SDS011;4093;53.470;9.832;2022-12-29T11:58:29;7.00;;;2.23;;
8100;SDS011;4093;53.470;9.832;2022-12-29T12:00:59;5.47;;;2.10;;
8100;SDS011;4093;53.470;9.832;2022-12-29T12:03:31;4.57;;;2.00;;
8100;SDS011;4093;53.470;9.832;2022-12-29T12:06:05;5.13;;;2.43;;
8100;SDS011;4093;53.470;9.832;2022-12-29T12:08:38;4.67;;;2.17;;
8100;SDS011;4093;53.470;9.832;2022-12-29T12:11:15;5.77;;;2.43;;
8100;SDS011;4093;53.470;9.832;2022-12-29T12:13:50;3.73;;;2.13;;
8100;SDS011;4093;53.470;9.832;2022-12-29T12:16:27;6.77;;;2.30;;
8100;SDS011;4093;53.470;9.832;2022-12-29T12:19:02;8.07;;;2.17;;
8100;SDS011;4093;53.470;9.832;2022-12-29T12:21:39;3.33;;;1.90;;
8100;SDS011;4093;53.470;9.832;2022-12-29T12:24:24;9.53;;;2.77;;
8100;SDS011;4093;53.470;9.832;2022-12-29T12:27:08;6.03;;;2.13;;
8100;SDS011;4093;53.470;9.832;2022-12-29T12:29:43;9.10;;;2.70;;
8100;SDS011;4093;53.470;9.832;2022-12-29T12:32:19;4.93;;;2.20;;
8100;SDS011;4093;53.470;9.832;2022-12-29T12:34:50;4.07;;;2.20;;
8100;SDS011;4093;53.470;9.832;2022-12-29T12:37:26;5.77;;;2.93;;
8100;SDS011;4093;53.470;9.832;2022-12-29T12:40:15;5.63;;;2.30;;
8100;SDS011;4093;53.470;9.832;2022-12-29T12:42:57;5.53;;;2.30;;
8100;SDS011;4093;53.470;9.832;2022-12-29T12:45:42;6.67;;;2.37;;
8100;SDS011;4093;53.470;9.832;2022-12-29T12:48:27;5.87;;;2.27;;
8100;SDS011;4093;53.470;9.832;2022-12-29T12:51:13;4.00;;;2.20;;
8100;SDS011;4093;53.470;9.832;2022-12-29T12:53:56;5.40;;;2.10;;
8100;SDS011;4093;53.470;9.832;2022-12-29T12:56:41;4.33;;;2.33;;
8100;SDS011;4093;53.470;9.832;2022-12-29T12:59:18;5.50;;;2.50;;
8100;SDS011;4093;53.470;9.832;2022-12-29T13:01:59;6.67;;;2.53;;
8100;SDS011;4093;53.470;9.832;2022-12-29T13:04:47;6.90;;;2.30;;
8100;SDS011;4093;53.470;9.832;2022-12-29T13:07:33;8.60;;;2.57;;
8100;SDS011;4093;53.470;9.832;2022-12-29T13:10:21;6.27;;;2.27;;
8100;SDS011;4093;53.470;9.832;2022-12-29T13:12:59;4.50;;;2.17;;
8100;SDS011;4093;53.470;9.832;2022-12-29T13:15:46;5.77;;;2.00;;
8100;SDS011;4093;53.470;9.832;2022-12-29T13:18:23;4.47;;;2.17;;
8100;SDS011;4093;53.470;9.832;2022-12-29T13:20:59;4.10;;;1.90;;
8100;SDS011;4093;53.470;9.832;2022-12-29T13:23:34;5.20;;;2.17;;
8100;SDS011;4093;53.470;9.832;2022-12-29T13:26:09;6.97;;;2.43;;
8100;SDS011;4093;53.470;9.832;2022-12-29T13:28:46;6.17;;;2.00;;
8100;SDS011;4093;53.470;9.832;2022-12-29T13:31:24;5.90;;;2.27;;
8100;SDS011;4093;53.470;9.832;2022-12-29T13:34:00;5.03;;;2.07;;
8100;SDS011;4093;53.470;9.832;2022-12-29T13:36:34;8.03;;;2.40;;
8100;SDS011;4093;53.470;9.832;2022-12-29T13:39:06;7.40;;;2.40;;
8100;SDS011;4093;53.470;9.832;2022-12-29T13:41:48;6.80;;;1.90;;
8100;SDS011;4093;53.470;9.832;2022-12-29T13:44:20;5.63;;;2.53;;
8100;SDS011;4093;53.470;9.832;2022-12-29T13:46:56;5.00;;;2.43;;
8100;SDS011;4093;53.470;9.832;2022-12-29T13:49:27;3.97;;;1.70;;
8100;SDS011;4093;53.470;9.832;2022-12-29T13:51:56;6.50;;;2.40;;
8100;SDS011;4093;53.470;9.832;2022-12-29T13:54:29;7.93;;;2.00;;
8100;SDS011;4093;53.470;9.832;2022-12-29T13:57:05;8.10;;;2.70;;
8100;SDS011;4093;53.470;9.832;2022-12-29T13:59:39;6.47;;;2.77;;
8100;SDS011;4093;53.470;9.832;2022-12-29T14:02:19;4.43;;;2.27;;
8100;SDS011;4093;53.470;9.832;2022-12-29T14:04:55;6.53;;;2.20;;
8100;SDS011;4093;53.470;9.832;2022-12-29T14:07:25;5.67;;;2.37;;
8100;SDS011;4093;53.470;9.832;2022-12-29T14:09:54;3.93;;;1.77;;
8100;SDS011;4093;53.470;9.832;2022-12-29T14:12:31;4.30;;;2.33;;
8100;SDS011;4093;53.470;9.832;2022-12-29T14:15:14;6.43;;;2.10;;
8100;SDS011;4093;53.470;9.832;2022-12-29T14:18:07;4.43;;;2.70;;
8100;SDS011;4093;53.470;9.832;2022-12-29T14:20:46;5.83;;;2.30;;
8100;SDS011;4093;53.470;9.832;2022-12-29T14:23:28;5.80;;;2.60;;
8100;SDS011;4093;53.470;9.832;2022-12-29T14:26:11;2.50;;;1.53;;
8100;SDS011;4093;53.470;9.832;2022-12-29T14:28:43;4.40;;;2.03;;
8100;SDS011;4093;53.470;9.832;2022-12-29T14:34:26;6.07;;;2.90;;
8100;SDS011;4093;53.470;9.832;2022-12-29T14:36:55;4.67;;;2.40;;
8100;SDS011;4093;53.470;9.832;2022-12-29T14:39:30;3.47;;;2.03;;
8100;SDS011;4093;53.470;9.832;2022-12-29T14:42:00;4.30;;;2.63;;
8100;SDS011;4093;53.470;9.832;2022-12-29T14:44:32;4.67;;;2.00;;
8100;SDS011;4093;53.470;9.832;2022-12-29T14:47:01;5.27;;;2.30;;
8100;SDS011;4093;53.470;9.832;2022-12-29T14:49:39;4.87;;;2.10;;
8100;SDS011;4093;53.470;9.832;2022-12-29T14:52:13;5.40;;;2.53;;
8100;SDS011;4093;53.470;9.832;2022-12-29T14:54:48;9.40;;;3.90;;
8100;SDS011;4093;53.470;9.832;2022-12-29T14:57:22;15.43;;;6.67;;
8100;SDS011;4093;53.470;9.832;2022-12-29T14:59:58;10.43;;;4.07;;
8100;SDS011;4093;53.470;9.832;2022-12-29T15:02:33;8.70;;;3.20;;
8100;SDS011;4093;53.470;9.832;2022-12-29T15:05:06;22.80;;;7.83;;
8100;SDS011;4093;53.470;9.832;2022-12-29T15:07:55;29.37;;;9.87;;
8100;SDS011;4093;53.470;9.832;2022-12-29T15:10:25;20.47;;;7.37;;
8100;SDS011;4093;53.470;9.832;2022-12-29T15:13:02;7.33;;;4.70;;
8100;SDS011;4093;53.470;9.832;2022-12-29T15:15:37;5.90;;;3.47;;
8100;SDS011;4093;53.470;9.832;2022-12-29T15:18:24;6.10;;;3.00;;
8100;SDS011;4093;53.470;9.832;2022-12-29T15:20:54;6.03;;;2.80;;
8100;SDS011;4093;53.470;9.832;2022-12-29T15:23:24;8.10;;;3.00;;
8100;SDS011;4093;53.470;9.832;2022-12-29T15:25:53;6.50;;;2.40;;
8100;SDS011;4093;53.470;9.832;2022-12-29T15:28:23;6.43;;;2.40;;
8100;SDS011;4093;53.470;9.832;2022-12-29T15:30:55;10.50;;;2.93;;
8100;SDS011;4093;53.470;9.832;2022-12-29T15:33:26;5.57;;;2.33;;
8100;SDS011;4093;53.470;9.832;2022-12-29T15:35:55;7.67;;;2.37;;
8100;SDS011;4093;53.470;9.832;2022-12-29T15:38:25;6.07;;;2.20;;
8100;SDS011;4093;53.470;9.832;2022-12-29T15:41:00;7.70;;;2.83;;
8100;SDS011;4093;53.470;9.832;2022-12-29T15:43:38;5.10;;;2.50;;
8100;SDS011;4093;53.470;9.832;2022-12-29T15:46:18;5.93;;;2.77;;
8100;SDS011;4093;53.470;9.832;2022-12-29T15:48:46;8.97;;;2.80;;
8100;SDS011;4093;53.470;9.832;2022-12-29T15:51:16;10.30;;;2.80;;
8100;SDS011;4093;53.470;9.832;2022-12-29T15:53:47;9.33;;;2.80;;
8100;SDS011;4093;53.470;9.832;2022-12-29T15:56:18;6.67;;;2.97;;
8100;SDS011;4093;53.470;9.832;2022-12-29T15:58:46;8.77;;;2.77;;
8100;SDS011;4093;53.470;9.832;2022-12-29T16:01:18;5.03;;;2.67;;
8100;SDS011;4093;53.470;9.832;2022-12-29T16:03:48;8.60;;;3.23;;